• Join FlightAware (Why Join?)
  • Login
  • US Flag 
12:15PM EST


 

Airport Tracker/Info


-or-


 

Live Flight TrackerFlight Track Log ✈ AAL1975 ✈ 09-Jul-2013 ✈ KRDU - KORD

Flight Track Log - Related Links

Times and Time Zones

All times are in EDT time to prevent confusion due to time zone crossing. See the AAL1975 flight status page for this flight to view local times or setup timezone preferences in your user account.

Time Position Orientation Groundspeed Altitude Reporting Facility
EDT Latitude Longitude Course Direction KTS MPH feet Rate Location/Type
10:51AM 35.8664 -78.8139 253° West 164 189 1,100  Level Washington Center
10:51AM 35.8361 -78.8536 227° Southwest 182 209 2,500 1,500 Climbing Washington Center
10:52AM 35.8342 -78.9253 268° West 234 269 3,900 1,680 Climbing Washington Center
10:53AM 35.8413 -79.1879 264° West  Level FlightAware Approximate
10:54AM 35.8308 -79.3230 262° West  Level FlightAware Approximate
10:54AM 35.8378 -79.0203 273° West 261 300 6,100  Level Washington Center
10:54AM 35.8378 -79.0944 270° West 262 302 8,000 2,340 Climbing Washington Center
10:55AM 35.8167 -79.4576 270° West  Level FlightAware Approximate
10:55AM 35.8389 -79.1969 271° West 294 338 10,600  Level Washington Center
10:56AM 35.8023 -79.5908 253° West  Level FlightAware Approximate
10:56AM 35.8361 -79.2917 268° West 311 358 11,600  Level Washington Center
10:58AM 35.8172 -79.5392 265° West 354 407 16,200 2,280 Climbing Atlanta Center
10:59AM 35.7944 -79.6583 257° West 369 425 18,200 2,100 Climbing Atlanta Center
11:00AM 35.7700 -79.7953 258° West 384 442 20,500 2,100 Climbing Atlanta Center
11:01AM 35.7475 -79.9269 258° West 397 457 22,400 1,200 Climbing Atlanta Center
11:02AM 35.7250 -80.0661 259° West 407 468 23,000 840 Climbing Atlanta Center
11:03AM 35.7517 -80.1903 285° West 413 475 24,100 1,140 Climbing Atlanta Center
11:04AM 35.8067 -80.3439 294° West 424 488 25,300 900 Climbing Atlanta Center
11:05AM 35.8586 -80.4850 294° West 442 509 26,000 960 Climbing Atlanta Center
11:06AM 35.9086 -80.6214 294° West 447 514 27,300 1,260 Climbing Atlanta Center
11:07AM 35.9603 -80.7653 294° West 454 522 28,600 1,200 Climbing Atlanta Center
11:08AM 36.0142 -80.9119 294° West 454 522 29,800 1,200 Climbing Atlanta Center
11:09AM 36.0658 -81.0564 294° West 459 528 31,000 600 Climbing Atlanta Center
11:10AM 36.1172 -81.2036 293° West 459 528 31,000  Level Atlanta Center
11:11AM 36.1686 -81.3536 293° West 471 542 31,000  Level Atlanta Center
11:12AM 36.2197 -81.5036 293° West 476 548 31,000 300 Level Atlanta Center
11:14AM 36.3192 -81.7861 294° West 469 540 32,000 300 Climbing Indianapolis Center
11:15AM 36.3708 -81.9339 294° West 468 539 32,000  Level Indianapolis Center
11:16AM 36.4217 -82.0839 293° West 471 542 32,000  Level Indianapolis Center
11:17AM 36.5092 -82.1967 314° West 463 533 32,000  Level Indianapolis Center
11:18AM 36.6100 -82.2936 322° Northwest 459 528 32,000  Level Indianapolis Center
11:19AM 36.7106 -82.3903 322° Northwest 457 526 32,000  Level Indianapolis Center
11:20AM 36.8283 -82.5028 323° Northwest 458 527 32,000  Level Indianapolis Center
11:21AM 36.9289 -82.5986 323° Northwest 458 527 32,000  Level Indianapolis Center
11:22AM 37.0292 -82.6933 323° Northwest 458 527 32,000  Level Indianapolis Center
11:24AM 37.1281 -82.7914 322° Northwest 460 529 32,000  Level Indianapolis Center
11:25AM 37.2442 -82.9050 322° Northwest 458 527 32,000  Level Indianapolis Center
11:26AM 37.3433 -83.0028 322° Northwest 456 525 32,000  Level Indianapolis Center
11:27AM 37.4431 -83.1006 322° Northwest 456 525 32,000  Level Indianapolis Center
11:28AM 37.5425 -83.1992 322° Northwest 455 524 32,000  Level Indianapolis Center
11:29AM 37.6422 -83.2972 322° Northwest 455 524 32,000  Level Indianapolis Center
11:30AM 37.7581 -83.4122 322° Northwest 454 522 32,000  Level Indianapolis Center
11:31AM 37.8575 -83.5103 322° Northwest 454 522 32,000  Level Indianapolis Center
11:32AM 37.9561 -83.6089 322° Northwest 451 519 32,000  Level Indianapolis Center
11:33AM 38.0558 -83.7075 322° Northwest 453 521 32,000  Level Indianapolis Center
11:34AM 38.1533 -83.8069 321° Northwest 448 516 32,000  Level Indianapolis Center
11:35AM 38.2519 -83.9058 322° Northwest 450 518 32,000  Level Indianapolis Center
11:36AM 38.3669 -84.0225 322° Northwest 453 521 32,000  Level Indianapolis Center
11:37AM 38.4653 -84.1228 321° Northwest 452 520 32,000  Level Indianapolis Center
11:38AM 38.5639 -84.2231 322° Northwest 453 521 32,000 -60 Level Indianapolis Center
11:39AM 38.6569 -84.3192 321° Northwest 456 525 31,900 -60 Descending Indianapolis Center
11:40AM 38.7656 -84.4453 318° Northwest 451 519 31,900  Level Indianapolis Center
11:41AM 38.8539 -84.5467 318° Northwest 451 519 32,000 -540 Climbing Indianapolis Center
11:42AM 38.9539 -84.6636 318° Northwest 453 521 30,900 -1,020 Descending Indianapolis Center
11:43AM 39.0497 -84.7747 318° Northwest 458 527 30,000 -960 Descending Indianapolis Center
11:44AM 39.1544 -84.8961 318° Northwest 459 528 29,000 -1,020 Descending Indianapolis Center
11:45AM 39.2489 -85.0089 317° Northwest 465 535 28,000 -540 Descending Indianapolis Center
11:46AM 39.3450 -85.1169 319° Northwest 462 532 28,000  Level Indianapolis Center
11:47AM 39.4600 -85.1814 337° Northwest 455 524 28,000  Level Indianapolis Center
11:48AM 39.5778 -85.2369 340° North 453 521 28,000  Level Indianapolis Center
11:49AM 39.6953 -85.2922 340° North 452 520 28,000 -300 Level Indianapolis Center
11:50AM 39.8358 -85.3606 340° North 453 521 27,400 -840 Descending Indianapolis Center
11:51AM 39.9517 -85.4167 340° North 449 517 26,300 -720 Descending Indianapolis Center
11:52AM 40.0667 -85.4714 340° North 445 512 26,000 -180 Descending Indianapolis Center
11:53AM 40.1811 -85.5272 340° North 443 510 26,000 -480 Level Indianapolis Center
11:54AM 40.2936 -85.5817 340° North 437 503 25,100 -1,020 Descending Indianapolis Center
11:56AM 40.4303 -85.6475 340° North 437 503 24,000 -600 Descending Indianapolis Center
11:57AM 40.5419 -85.7003 340° North 431 496 23,900 -540 Descending Indianapolis Center
11:58AM 40.6528 -85.7489 342° North 424 488 23,000 -480 Descending Indianapolis Center
11:59AM 40.7631 -85.7983 341° North 421 484 23,000 -300 Level Indianapolis Center
12:00PM 40.8747 -85.8492 341° North 425 489 22,400 -900 Descending Indianapolis Center
12:01PM 41.0047 -85.9086 341° North 416 479 21,200 -1,080 Descending Indianapolis Center
12:02PM 41.0889 -85.9981 321° Northwest 401 461 20,200 -600 Descending Indianapolis Center
12:03PM 41.1539 -86.1106 308° West 388 447 20,000 -420 Descending Indianapolis Center
12:04PM 41.2186 -86.2247 307° West 388 447 19,400 -1,080 Descending Indianapolis Center
12:05PM 41.2831 -86.3358 308° West 383 441 17,800 -1,620 Descending Indianapolis Center
12:06PM 41.3547 -86.4650 306° West 372 428 16,000 -1,620 Descending Chicago Center
12:07PM 41.4153 -86.5703 308° West 360 414 14,400 -1,500 Descending Chicago Center
12:08PM 41.4747 -86.6756 307° West 357 411 12,900 -1,200 Descending Chicago Center
12:09PM 41.5447 -86.7761 313° West 357 411 12,000 -420 Descending Chicago Center
12:10PM 41.6608 -86.7942 353° North 356 410 12,100  Climbing Chicago Center
12:11PM 41.7600 -86.8081 354° North 360 414 12,100  Level Chicago Center
12:12PM 41.8508 -86.8272 351° North 359 413 12,100 -360 Level Chicago Center
12:13PM 41.9172 -86.9225 313° West 344 396 11,400 -660 Descending Chicago Center
12:14PM 41.9517 -87.0264 294° West 325 374 10,800 -1,020 Descending Chicago Center
12:15PM 41.9569 -87.1281 274° West 286 329 9,300 -1,080 Descending Chicago Center
12:16PM 41.9650 -87.2431 275° West 266 306 8,700 -540 Descending Chicago Center
12:17PM 41.9686 -87.3178 274° West 221 254 8,300 -420 Descending Chicago Center
12:18PM 41.9689 -87.3797 270° West 175 201 7,900 -660 Descending Chicago Center
12:19PM 41.9692 -87.4411 270° West 169 194 7,000 -1,020 Descending Chicago Center
12:20PM 41.9683 -87.4997 269° West 161 185 5,900 -1,020 Descending Chicago Center
12:21PM 41.9686 -87.5672 270° West 155 178 5,000 -900 Descending Chicago Center